createdAt,value
2023-03-05T00:00:00.623Z,4.1
2023-03-05T00:05:00.632Z,3.9
2023-03-05T00:10:00.627Z,2.2
2023-03-05T00:15:00.630Z,4.0
2023-03-05T00:20:02.352Z,3.5
2023-03-05T00:25:00.628Z,4.3
2023-03-05T00:30:00.651Z,3.8
2023-03-05T00:35:00.650Z,4.7
2023-03-05T00:40:00.643Z,5.4
2023-03-05T00:45:00.670Z,6.2
2023-03-05T00:50:00.596Z,3.5
2023-03-05T00:55:00.599Z,4.2
2023-03-05T01:00:00.604Z,5.1
2023-03-05T01:05:00.779Z,8.7
2023-03-05T01:10:00.621Z,4.0
2023-03-05T01:15:00.696Z,6.7
2023-03-05T01:20:00.623Z,5.8
2023-03-05T01:25:00.616Z,3.8
2023-03-05T01:30:00.587Z,3.8
2023-03-05T01:35:00.666Z,4.5
2023-03-05T01:40:00.620Z,7.4
2023-03-05T01:45:00.539Z,3.3
2023-03-05T01:50:00.527Z,7.9
2023-03-05T01:55:00.633Z,6.3
2023-03-05T02:00:00.535Z,3.5
2023-03-05T02:05:00.673Z,3.2
2023-03-05T02:10:00.672Z,6.0
2023-03-05T02:15:00.588Z,5.9
2023-03-05T02:20:00.612Z,4.0
2023-03-05T02:25:00.830Z,3.9
2023-03-05T02:30:00.555Z,4.9
2023-03-05T02:35:00.535Z,5.6
2023-03-05T02:40:00.725Z,5.3
2023-03-05T02:45:00.771Z,7.1
2023-03-05T02:50:00.585Z,7.1
2023-03-05T02:55:00.573Z,4.6
2023-03-05T03:00:00.690Z,7.3
2023-03-05T03:05:00.578Z,5.9
2023-03-05T03:10:00.629Z,8.5
2023-03-05T03:15:00.705Z,6.3
2023-03-05T03:20:00.668Z,9.0
2023-03-05T03:25:00.683Z,4.6
2023-03-05T03:30:00.642Z,5.6
2023-03-05T03:35:00.890Z,7.6
2023-03-05T03:40:00.691Z,10.7
2023-03-05T03:45:00.668Z,7.4
2023-03-05T03:50:00.678Z,10.6
2023-03-05T03:55:00.558Z,6.9
2023-03-05T04:00:00.629Z,8.8
2023-03-05T04:05:00.643Z,6.7
2023-03-05T04:10:00.615Z,7.7
2023-03-05T04:15:00.821Z,8.6
2023-03-05T04:20:00.601Z,9.0
2023-03-05T04:25:00.732Z,8.3
2023-03-05T04:30:00.605Z,6.5
2023-03-05T04:35:00.795Z,12.5
2023-03-05T04:40:00.553Z,6.8
2023-03-05T04:45:00.657Z,7.5
2023-03-05T04:50:00.560Z,11.2
2023-03-05T04:55:00.591Z,9.4
2023-03-05T05:00:00.889Z,5.5
2023-03-05T05:05:00.627Z,8.9
2023-03-05T05:10:00.653Z,7.9
2023-03-05T05:15:00.674Z,5.5
2023-03-05T05:20:00.609Z,6.5
2023-03-05T05:25:00.648Z,8.6
2023-03-05T05:30:00.708Z,9.6
2023-03-05T05:35:00.643Z,8.2
2023-03-05T05:40:00.548Z,8.2
2023-03-05T05:45:00.613Z,8.0
2023-03-05T05:50:00.669Z,9.1
2023-03-05T05:55:00.624Z,6.8
2023-03-05T06:00:00.698Z,8.7
2023-03-05T06:05:00.613Z,5.3
2023-03-05T06:10:00.686Z,8.9
2023-03-05T06:15:00.626Z,7.5
2023-03-05T06:20:00.595Z,6.8
2023-03-05T06:25:00.658Z,10.7
2023-03-05T06:30:00.864Z,9.0
2023-03-05T06:35:00.696Z,9.0
2023-03-05T06:40:00.677Z,6.6
2023-03-05T06:45:00.624Z,8.1
2023-03-05T06:50:00.713Z,9.1
2023-03-05T06:55:00.633Z,6.3
2023-03-05T07:00:00.728Z,7.3
2023-03-05T07:05:00.675Z,8.4
2023-03-05T07:10:00.730Z,9.1
2023-03-05T07:15:00.892Z,8.6
2023-03-05T07:20:00.643Z,11.6
2023-03-05T07:25:00.706Z,8.6
2023-03-05T07:30:00.865Z,11.5
2023-03-05T07:35:01.152Z,11.7
2023-03-05T07:40:00.673Z,11.8
2023-03-05T07:45:00.627Z,12.1
2023-03-05T07:50:00.896Z,11.4
2023-03-05T07:55:01.108Z,7.3
2023-03-05T08:00:00.843Z,8.8
2023-03-05T08:05:00.848Z,10.8
2023-03-05T08:10:00.849Z,8.3
2023-03-05T08:15:00.786Z,7.5
2023-03-05T08:20:00.830Z,8.8
2023-03-05T08:25:00.867Z,6.9
2023-03-05T08:30:00.757Z,6.9
2023-03-05T08:35:01.417Z,5.4
2023-03-05T08:40:00.872Z,7.9
2023-03-05T08:45:00.627Z,7.9
2023-03-05T08:50:01.331Z,6.6
2023-03-05T08:55:00.777Z,5.9
2023-03-05T09:00:00.814Z,10.0
2023-03-05T09:05:00.837Z,5.0
2023-03-05T09:10:00.867Z,7.2
2023-03-05T09:15:01.019Z,4.7
2023-03-05T09:20:00.693Z,6.1
2023-03-05T09:25:00.796Z,7.0
2023-03-05T09:30:00.794Z,4.3
2023-03-05T09:35:00.902Z,6.3
2023-03-05T09:40:00.897Z,3.8
2023-03-05T09:45:01.000Z,3.7
2023-03-05T09:50:00.852Z,3.7
2023-03-05T09:55:00.860Z,4.0
2023-03-05T10:00:00.827Z,6.8
2023-03-05T10:05:00.928Z,4.1
2023-03-05T10:10:00.985Z,3.6
2023-03-05T10:20:01.370Z,2.4
2023-03-05T10:25:00.966Z,3.5
2023-03-05T10:30:00.921Z,3.1
2023-03-05T10:35:00.786Z,3.8
2023-03-05T10:40:01.077Z,4.0
2023-03-05T10:45:00.841Z,4.1
2023-03-05T10:50:00.881Z,4.5
2023-03-05T10:55:00.688Z,3.0
2023-03-05T11:00:00.755Z,1.7
2023-03-05T11:05:01.104Z,1.4
2023-03-05T11:10:00.838Z,1.2
2023-03-05T11:15:00.894Z,2.3
2023-03-05T11:20:01.243Z,1.7
2023-03-05T11:25:00.821Z,3.1
2023-03-05T11:30:00.990Z,1.4
2023-03-05T11:35:00.804Z,2.1
2023-03-05T11:40:00.860Z,2.4
2023-03-05T11:45:01.159Z,2.7
2023-03-05T11:50:00.818Z,3.2
2023-03-05T11:55:00.881Z,3.0
2023-03-05T12:00:00.807Z,0.8
2023-03-05T12:05:00.664Z,1.9
2023-03-05T12:10:01.844Z,1.4
2023-03-05T12:15:00.806Z,2.4
2023-03-05T12:20:00.927Z,1.7
2023-03-05T12:25:00.807Z,2.3
2023-03-05T12:30:00.795Z,4.1
2023-03-05T12:35:00.930Z,4.6
2023-03-05T12:40:00.721Z,2.8
2023-03-05T12:45:00.727Z,2.7
2023-03-05T12:50:00.843Z,4.2
2023-03-05T12:55:00.888Z,2.4
2023-03-05T13:00:00.722Z,6.4
2023-03-05T13:05:00.950Z,2.3
2023-03-05T13:10:00.855Z,2.7
2023-03-05T13:15:01.075Z,2.4
2023-03-05T13:20:00.817Z,2.8
2023-03-05T13:25:00.857Z,3.0
2023-03-05T13:30:00.561Z,4.7
2023-03-05T13:35:00.912Z,3.8
2023-03-05T13:40:01.411Z,4.3
2023-03-05T13:45:00.805Z,4.7
2023-03-05T13:50:01.115Z,3.0
2023-03-05T13:55:00.923Z,3.1
2023-03-05T14:00:00.825Z,4.1
2023-03-05T14:05:00.952Z,4.4
2023-03-05T14:10:00.814Z,2.6
2023-03-05T14:15:00.748Z,3.4
2023-03-05T14:20:00.826Z,3.9
2023-03-05T14:25:00.793Z,2.7
2023-03-05T14:30:00.846Z,4.1
2023-03-05T14:35:00.844Z,4.5
2023-03-05T14:40:01.142Z,3.4
2023-03-05T14:45:01.747Z,4.6
2023-03-05T14:50:00.771Z,2.9
2023-03-05T14:55:00.861Z,1.9
2023-03-05T15:00:00.696Z,3.7
2023-03-05T15:05:00.763Z,2.1
2023-03-05T15:10:00.795Z,4.5
2023-03-05T15:15:00.659Z,1.3
2023-03-05T15:20:00.817Z,2.8
2023-03-05T15:25:00.698Z,2.0
2023-03-05T15:30:00.853Z,3.0
2023-03-05T15:35:00.824Z,4.9
2023-03-05T15:40:00.815Z,1.4
2023-03-05T15:45:00.761Z,5.7
2023-03-05T15:50:00.833Z,4.0
2023-03-05T15:55:00.740Z,3.2
2023-03-05T16:00:00.621Z,3.2
2023-03-05T16:05:00.789Z,2.0
2023-03-05T16:10:00.707Z,3.0
2023-03-05T16:15:00.759Z,1.1
2023-03-05T16:20:00.720Z,1.8
2023-03-05T16:25:00.616Z,1.1
2023-03-05T16:30:00.836Z,4.1
2023-03-05T16:35:00.637Z,1.6
2023-03-05T16:40:00.631Z,3.2
2023-03-05T16:45:00.866Z,2.9
2023-03-05T16:50:00.745Z,2.4
2023-03-05T16:55:00.694Z,3.6
2023-03-05T17:00:01.450Z,3.6
2023-03-05T17:05:00.736Z,6.2
2023-03-05T17:10:00.720Z,5.1
2023-03-05T17:15:00.707Z,6.4
2023-03-05T17:20:00.718Z,7.5
2023-03-05T17:25:00.818Z,7.8
2023-03-05T17:30:00.675Z,5.8
2023-03-05T17:35:00.704Z,4.0
2023-03-05T17:40:00.872Z,3.2
2023-03-05T17:45:00.770Z,3.4
2023-03-05T17:50:00.834Z,6.9
2023-03-05T17:55:00.727Z,6.7
2023-03-05T18:00:00.792Z,6.2
2023-03-05T18:05:02.614Z,3.7
2023-03-05T18:10:00.699Z,5.5
2023-03-05T18:15:00.733Z,6.4
2023-03-05T18:20:03.805Z,4.4
2023-03-05T18:25:00.616Z,3.1
2023-03-05T18:30:00.880Z,3.4
2023-03-05T18:35:00.694Z,6.5
2023-03-05T18:40:00.656Z,5.0
2023-03-05T18:45:00.803Z,10.6
2023-03-05T18:50:00.581Z,9.1
2023-03-05T18:55:00.593Z,7.8
2023-03-05T19:00:00.707Z,6.4
2023-03-05T19:05:00.735Z,9.7
2023-03-05T19:10:00.757Z,4.0
2023-03-05T19:15:00.701Z,4.4
2023-03-05T19:20:00.691Z,5.0
2023-03-05T19:25:00.917Z,5.8
2023-03-05T19:30:00.818Z,5.8
2023-03-05T19:35:00.659Z,6.4
2023-03-05T19:40:00.826Z,4.5
2023-03-05T19:45:00.730Z,6.2
2023-03-05T19:50:00.804Z,3.2
2023-03-05T19:55:00.768Z,7.4
2023-03-05T20:00:00.642Z,8.9
2023-03-05T20:05:00.612Z,9.2
2023-03-05T20:10:00.615Z,10.6
2023-03-05T20:15:00.642Z,9.9
2023-03-05T20:20:00.630Z,9.5
2023-03-05T20:25:00.585Z,7.7
2023-03-05T20:30:00.639Z,11.9
2023-03-05T20:35:00.588Z,15.9
2023-03-05T20:40:00.675Z,15.8
2023-03-05T20:45:00.673Z,11.0
2023-03-05T20:50:00.673Z,14.7
2023-03-05T20:55:00.624Z,14.6
2023-03-05T21:00:00.711Z,13.1
2023-03-05T21:05:00.622Z,11.9
2023-03-05T21:10:00.691Z,8.5
2023-03-05T21:15:00.675Z,13.1
2023-03-05T21:20:00.681Z,9.4
2023-03-05T21:25:00.655Z,8.0
2023-03-05T21:30:00.783Z,8.1
2023-03-05T21:35:00.788Z,7.6
2023-03-05T21:40:00.678Z,7.5
2023-03-05T21:45:00.725Z,8.8
2023-03-05T21:50:00.736Z,8.6
2023-03-05T21:55:00.618Z,7.1
2023-03-05T22:00:00.724Z,9.0
2023-03-05T22:05:00.623Z,5.7
2023-03-05T22:10:00.654Z,7.5
2023-03-05T22:15:00.640Z,5.9
2023-03-05T22:20:00.694Z,7.5
2023-03-05T22:25:00.600Z,5.8
2023-03-05T22:30:00.666Z,7.3
2023-03-05T22:35:00.629Z,6.0
2023-03-05T22:40:00.797Z,8.2
2023-03-05T22:45:00.856Z,9.1
2023-03-05T22:50:00.620Z,5.7
2023-03-05T22:55:00.693Z,10.7
2023-03-05T23:00:00.717Z,7.7
2023-03-05T23:05:00.657Z,6.6
2023-03-05T23:10:00.746Z,7.0
2023-03-05T23:15:00.740Z,5.0
2023-03-05T23:20:00.679Z,6.3
2023-03-05T23:25:00.730Z,6.2
2023-03-05T23:30:00.751Z,8.0
2023-03-05T23:35:00.625Z,6.0
2023-03-05T23:40:00.765Z,7.2
2023-03-05T23:45:00.749Z,7.0
2023-03-05T23:50:01.045Z,5.2
2023-03-05T23:55:00.739Z,5.8
